sensor_id;sensor_type;location;lat;lon;timestamp;temperature;humidity
7708;DHT22;3896;48.758;8.888;2022-07-09T00:00:23;14.10;71.70
7708;DHT22;3896;48.758;8.888;2022-07-09T00:02:49;14.10;72.00
7708;DHT22;3896;48.758;8.888;2022-07-09T00:05:14;14.00;72.10
7708;DHT22;3896;48.758;8.888;2022-07-09T00:07:40;14.00;72.40
7708;DHT22;3896;48.758;8.888;2022-07-09T00:10:06;13.90;72.60
7708;DHT22;3896;48.758;8.888;2022-07-09T00:12:32;13.90;73.00
7708;DHT22;3896;48.758;8.888;2022-07-09T00:14:58;13.80;73.30
7708;DHT22;3896;48.758;8.888;2022-07-09T00:17:23;13.80;73.70
7708;DHT22;3896;48.758;8.888;2022-07-09T00:19:51;13.80;74.20
7708;DHT22;3896;48.758;8.888;2022-07-09T00:22:17;13.70;74.50
7708;DHT22;3896;48.758;8.888;2022-07-09T00:24:42;13.70;75.00
7708;DHT22;3896;48.758;8.888;2022-07-09T00:27:08;13.60;75.40
7708;DHT22;3896;48.758;8.888;2022-07-09T00:29:34;13.60;75.80
7708;DHT22;3896;48.758;8.888;2022-07-09T00:31:59;13.60;76.20
7708;DHT22;3896;48.758;8.888;2022-07-09T00:34:25;13.50;76.50
7708;DHT22;3896;48.758;8.888;2022-07-09T00:36:51;13.50;76.80
7708;DHT22;3896;48.758;8.888;2022-07-09T00:39:16;13.40;77.30
7708;DHT22;3896;48.758;8.888;2022-07-09T00:41:42;13.40;77.80
7708;DHT22;3896;48.758;8.888;2022-07-09T00:44:07;13.30;77.90
7708;DHT22;3896;48.758;8.888;2022-07-09T00:46:33;13.30;78.20
7708;DHT22;3896;48.758;8.888;2022-07-09T00:48:59;13.30;78.70
7708;DHT22;3896;48.758;8.888;2022-07-09T00:51:30;13.20;78.90
7708;DHT22;3896;48.758;8.888;2022-07-09T00:53:56;13.20;79.50
7708;DHT22;3896;48.758;8.888;2022-07-09T00:56:23;13.20;79.70
7708;DHT22;3896;48.758;8.888;2022-07-09T00:58:50;13.10;79.90
7708;DHT22;3896;48.758;8.888;2022-07-09T01:01:16;13.10;80.40
7708;DHT22;3896;48.758;8.888;2022-07-09T01:03:41;13.10;80.70
7708;DHT22;3896;48.758;8.888;2022-07-09T01:06:07;13.00;81.00
7708;DHT22;3896;48.758;8.888;2022-07-09T01:08:33;13.00;81.10
7708;DHT22;3896;48.758;8.888;2022-07-09T01:10:59;13.00;81.50
7708;DHT22;3896;48.758;8.888;2022-07-09T01:13:25;12.90;81.90
7708;DHT22;3896;48.758;8.888;2022-07-09T01:15:51;12.90;82.20
7708;DHT22;3896;48.758;8.888;2022-07-09T01:18:17;12.90;82.50
7708;DHT22;3896;48.758;8.888;2022-07-09T01:20:43;12.80;82.70
7708;DHT22;3896;48.758;8.888;2022-07-09T01:23:09;12.80;83.00
7708;DHT22;3896;48.758;8.888;2022-07-09T01:25:37;12.80;83.10
7708;DHT22;3896;48.758;8.888;2022-07-09T01:28:04;12.70;83.00
7708;DHT22;3896;48.758;8.888;2022-07-09T01:30:31;12.70;83.20
7708;DHT22;3896;48.758;8.888;2022-07-09T01:32:58;12.70;83.50
7708;DHT22;3896;48.758;8.888;2022-07-09T01:35:24;12.60;83.70
7708;DHT22;3896;48.758;8.888;2022-07-09T01:37:50;12.60;84.00
7708;DHT22;3896;48.758;8.888;2022-07-09T01:40:16;12.50;84.40
7708;DHT22;3896;48.758;8.888;2022-07-09T01:42:41;12.60;84.90
7708;DHT22;3896;48.758;8.888;2022-07-09T01:45:07;12.50;85.30
7708;DHT22;3896;48.758;8.888;2022-07-09T01:47:33;12.50;85.50
7708;DHT22;3896;48.758;8.888;2022-07-09T01:49:59;12.40;85.70
7708;DHT22;3896;48.758;8.888;2022-07-09T01:52:25;12.40;85.70
7708;DHT22;3896;48.758;8.888;2022-07-09T01:54:51;12.30;85.80
7708;DHT22;3896;48.758;8.888;2022-07-09T01:57:16;12.30;85.90
7708;DHT22;3896;48.758;8.888;2022-07-09T01:59:42;12.30;86.30
7708;DHT22;3896;48.758;8.888;2022-07-09T02:02:08;12.30;86.60
7708;DHT22;3896;48.758;8.888;2022-07-09T02:04:33;12.20;86.90
7708;DHT22;3896;48.758;8.888;2022-07-09T02:06:59;12.20;87.20
7708;DHT22;3896;48.758;8.888;2022-07-09T02:09:25;12.10;87.60
7708;DHT22;3896;48.758;8.888;2022-07-09T02:11:50;12.10;88.00
7708;DHT22;3896;48.758;8.888;2022-07-09T02:14:16;12.10;88.40
7708;DHT22;3896;48.758;8.888;2022-07-09T02:16:42;12.00;88.30
7708;DHT22;3896;48.758;8.888;2022-07-09T02:19:08;12.00;88.70
7708;DHT22;3896;48.758;8.888;2022-07-09T02:21:34;12.00;88.90
7708;DHT22;3896;48.758;8.888;2022-07-09T02:23:59;12.00;89.30
7708;DHT22;3896;48.758;8.888;2022-07-09T02:26:26;11.90;89.40
7708;DHT22;3896;48.758;8.888;2022-07-09T02:28:56;11.90;89.60
7708;DHT22;3896;48.758;8.888;2022-07-09T02:31:21;11.90;90.00
7708;DHT22;3896;48.758;8.888;2022-07-09T02:33:47;11.90;90.10
7708;DHT22;3896;48.758;8.888;2022-07-09T02:36:13;11.80;90.20
7708;DHT22;3896;48.758;8.888;2022-07-09T02:38:38;11.80;90.50
7708;DHT22;3896;48.758;8.888;2022-07-09T02:41:04;11.80;90.60
7708;DHT22;3896;48.758;8.888;2022-07-09T02:43:30;11.80;90.60
7708;DHT22;3896;48.758;8.888;2022-07-09T02:45:58;11.70;90.70
7708;DHT22;3896;48.758;8.888;2022-07-09T02:48:24;11.70;90.80
7708;DHT22;3896;48.758;8.888;2022-07-09T02:50:53;11.60;91.00
7708;DHT22;3896;48.758;8.888;2022-07-09T02:53:19;11.60;91.20
7708;DHT22;3896;48.758;8.888;2022-07-09T02:55:45;11.60;91.40
7708;DHT22;3896;48.758;8.888;2022-07-09T02:58:12;11.60;91.70
7708;DHT22;3896;48.758;8.888;2022-07-09T03:00:38;11.50;91.70
7708;DHT22;3896;48.758;8.888;2022-07-09T03:03:07;11.50;91.80
7708;DHT22;3896;48.758;8.888;2022-07-09T03:05:33;11.50;91.80
7708;DHT22;3896;48.758;8.888;2022-07-09T03:07:59;11.50;92.00
7708;DHT22;3896;48.758;8.888;2022-07-09T03:10:25;11.40;92.10
7708;DHT22;3896;48.758;8.888;2022-07-09T03:12:51;11.40;92.30
7708;DHT22;3896;48.758;8.888;2022-07-09T03:15:17;11.40;92.50
7708;DHT22;3896;48.758;8.888;2022-07-09T03:17:46;11.40;92.60
7708;DHT22;3896;48.758;8.888;2022-07-09T03:20:13;11.30;92.70
7708;DHT22;3896;48.758;8.888;2022-07-09T03:22:39;11.30;93.00
7708;DHT22;3896;48.758;8.888;2022-07-09T03:25:05;11.30;93.30
7708;DHT22;3896;48.758;8.888;2022-07-09T03:27:32;11.30;93.40
7708;DHT22;3896;48.758;8.888;2022-07-09T03:29:58;11.20;93.40
7708;DHT22;3896;48.758;8.888;2022-07-09T03:32:25;11.20;93.40
7708;DHT22;3896;48.758;8.888;2022-07-09T03:34:51;11.20;93.60
7708;DHT22;3896;48.758;8.888;2022-07-09T03:37:18;11.20;93.70
7708;DHT22;3896;48.758;8.888;2022-07-09T03:39:44;11.20;93.80
7708;DHT22;3896;48.758;8.888;2022-07-09T03:42:10;11.20;94.00
7708;DHT22;3896;48.758;8.888;2022-07-09T03:44:37;11.10;94.20
7708;DHT22;3896;48.758;8.888;2022-07-09T03:47:04;11.10;94.40
7708;DHT22;3896;48.758;8.888;2022-07-09T03:49:29;11.10;94.50
7708;DHT22;3896;48.758;8.888;2022-07-09T03:51:55;11.00;94.50
7708;DHT22;3896;48.758;8.888;2022-07-09T03:54:21;11.00;94.60
7708;DHT22;3896;48.758;8.888;2022-07-09T03:56:47;11.00;94.80
7708;DHT22;3896;48.758;8.888;2022-07-09T03:59:12;11.00;95.00
7708;DHT22;3896;48.758;8.888;2022-07-09T04:01:39;11.00;95.30
7708;DHT22;3896;48.758;8.888;2022-07-09T04:04:05;11.00;95.50
7708;DHT22;3896;48.758;8.888;2022-07-09T04:06:31;11.00;95.70
7708;DHT22;3896;48.758;8.888;2022-07-09T04:08:56;11.00;95.90
7708;DHT22;3896;48.758;8.888;2022-07-09T04:11:22;11.00;96.10
7708;DHT22;3896;48.758;8.888;2022-07-09T04:13:48;10.90;96.40
7708;DHT22;3896;48.758;8.888;2022-07-09T04:16:14;10.90;96.50
7708;DHT22;3896;48.758;8.888;2022-07-09T04:18:40;10.90;96.80
7708;DHT22;3896;48.758;8.888;2022-07-09T04:21:10;10.90;96.90
7708;DHT22;3896;48.758;8.888;2022-07-09T04:23:36;10.90;97.00
7708;DHT22;3896;48.758;8.888;2022-07-09T04:26:01;10.90;97.30
7708;DHT22;3896;48.758;8.888;2022-07-09T04:28:27;10.90;97.60
7708;DHT22;3896;48.758;8.888;2022-07-09T04:30:53;10.90;97.90
7708;DHT22;3896;48.758;8.888;2022-07-09T04:33:18;10.90;98.00
7708;DHT22;3896;48.758;8.888;2022-07-09T04:35:47;10.90;98.20
7708;DHT22;3896;48.758;8.888;2022-07-09T04:38:13;10.90;98.20
7708;DHT22;3896;48.758;8.888;2022-07-09T04:40:39;11.00;98.70
7708;DHT22;3896;48.758;8.888;2022-07-09T04:43:05;11.00;98.90
7708;DHT22;3896;48.758;8.888;2022-07-09T04:45:31;11.00;99.20
7708;DHT22;3896;48.758;8.888;2022-07-09T04:47:58;11.00;99.50
7708;DHT22;3896;48.758;8.888;2022-07-09T04:50:27;11.00;99.70
7708;DHT22;3896;48.758;8.888;2022-07-09T04:52:52;11.00;99.90
7708;DHT22;3896;48.758;8.888;2022-07-09T04:55:18;11.00;99.90
7708;DHT22;3896;48.758;8.888;2022-07-09T04:57:44;11.00;99.90
7708;DHT22;3896;48.758;8.888;2022-07-09T05:00:10;11.00;99.90
7708;DHT22;3896;48.758;8.888;2022-07-09T05:02:37;11.00;99.90
7708;DHT22;3896;48.758;8.888;2022-07-09T05:05:04;11.10;99.90
7708;DHT22;3896;48.758;8.888;2022-07-09T05:07:32;11.10;99.90
7708;DHT22;3896;48.758;8.888;2022-07-09T05:09:57;11.10;99.90
7708;DHT22;3896;48.758;8.888;2022-07-09T05:12:23;11.10;99.90
7708;DHT22;3896;48.758;8.888;2022-07-09T05:14:49;11.20;99.90
7708;DHT22;3896;48.758;8.888;2022-07-09T05:17:15;11.20;99.90
7708;DHT22;3896;48.758;8.888;2022-07-09T05:19:40;11.20;99.90
7708;DHT22;3896;48.758;8.888;2022-07-09T05:22:06;11.30;99.90
7708;DHT22;3896;48.758;8.888;2022-07-09T05:24:32;11.30;99.90
7708;DHT22;3896;48.758;8.888;2022-07-09T05:26:57;11.30;99.90
7708;DHT22;3896;48.758;8.888;2022-07-09T05:29:23;11.40;99.90
7708;DHT22;3896;48.758;8.888;2022-07-09T05:31:49;11.40;99.90
7708;DHT22;3896;48.758;8.888;2022-07-09T05:34:16;11.40;99.90
7708;DHT22;3896;48.758;8.888;2022-07-09T05:36:41;11.50;99.90
7708;DHT22;3896;48.758;8.888;2022-07-09T05:39:07;11.60;99.90
7708;DHT22;3896;48.758;8.888;2022-07-09T05:41:33;11.60;99.90
7708;DHT22;3896;48.758;8.888;2022-07-09T05:43:59;11.60;99.90
7708;DHT22;3896;48.758;8.888;2022-07-09T05:46:25;11.70;99.90
7708;DHT22;3896;48.758;8.888;2022-07-09T05:48:51;11.70;99.90
7708;DHT22;3896;48.758;8.888;2022-07-09T05:51:16;11.80;99.90
7708;DHT22;3896;48.758;8.888;2022-07-09T05:53:42;11.80;99.90
7708;DHT22;3896;48.758;8.888;2022-07-09T05:56:08;11.90;99.90
7708;DHT22;3896;48.758;8.888;2022-07-09T05:58:34;11.90;99.90
7708;DHT22;3896;48.758;8.888;2022-07-09T06:01:00;12.00;99.90
7708;DHT22;3896;48.758;8.888;2022-07-09T06:03:26;12.10;99.90
7708;DHT22;3896;48.758;8.888;2022-07-09T06:05:51;12.10;99.90
7708;DHT22;3896;48.758;8.888;2022-07-09T06:08:17;12.20;99.90
7708;DHT22;3896;48.758;8.888;2022-07-09T06:10:43;12.30;99.90
7708;DHT22;3896;48.758;8.888;2022-07-09T06:13:09;12.30;99.90
7708;DHT22;3896;48.758;8.888;2022-07-09T06:15:34;12.40;99.90
7708;DHT22;3896;48.758;8.888;2022-07-09T06:18:00;12.50;99.90
7708;DHT22;3896;48.758;8.888;2022-07-09T06:20:27;12.60;99.90
7708;DHT22;3896;48.758;8.888;2022-07-09T06:22:52;12.60;99.90
7708;DHT22;3896;48.758;8.888;2022-07-09T06:25:18;12.70;99.90
7708;DHT22;3896;48.758;8.888;2022-07-09T06:27:44;12.80;99.90
7708;DHT22;3896;48.758;8.888;2022-07-09T06:30:09;12.90;99.90
7708;DHT22;3896;48.758;8.888;2022-07-09T06:32:35;12.90;99.90
7708;DHT22;3896;48.758;8.888;2022-07-09T06:35:01;13.00;99.90
7708;DHT22;3896;48.758;8.888;2022-07-09T06:37:28;13.10;99.90
7708;DHT22;3896;48.758;8.888;2022-07-09T06:39:53;13.20;99.90
7708;DHT22;3896;48.758;8.888;2022-07-09T06:42:21;13.30;99.90
7708;DHT22;3896;48.758;8.888;2022-07-09T06:44:47;13.40;99.90
7708;DHT22;3896;48.758;8.888;2022-07-09T06:47:13;13.50;99.90
7708;DHT22;3896;48.758;8.888;2022-07-09T06:49:39;13.60;99.90
7708;DHT22;3896;48.758;8.888;2022-07-09T06:52:05;13.70;99.90
7708;DHT22;3896;48.758;8.888;2022-07-09T06:54:31;13.80;99.90
7708;DHT22;3896;48.758;8.888;2022-07-09T06:56:57;13.90;99.90
7708;DHT22;3896;48.758;8.888;2022-07-09T06:59:23;14.00;99.90
7708;DHT22;3896;48.758;8.888;2022-07-09T07:01:49;14.10;99.90
7708;DHT22;3896;48.758;8.888;2022-07-09T07:04:15;14.20;99.90
7708;DHT22;3896;48.758;8.888;2022-07-09T07:06:41;14.30;99.90
7708;DHT22;3896;48.758;8.888;2022-07-09T07:09:07;14.50;99.90
7708;DHT22;3896;48.758;8.888;2022-07-09T07:11:33;14.60;99.90
7708;DHT22;3896;48.758;8.888;2022-07-09T07:13:58;14.70;99.90
7708;DHT22;3896;48.758;8.888;2022-07-09T07:16:24;14.80;99.90
7708;DHT22;3896;48.758;8.888;2022-07-09T07:18:50;14.90;99.90
7708;DHT22;3896;48.758;8.888;2022-07-09T07:21:15;15.10;99.90
7708;DHT22;3896;48.758;8.888;2022-07-09T07:23:41;15.10;99.70
7708;DHT22;3896;48.758;8.888;2022-07-09T07:26:06;15.20;99.90
7708;DHT22;3896;48.758;8.888;2022-07-09T07:28:33;15.30;99.90
7708;DHT22;3896;48.758;8.888;2022-07-09T07:30:59;15.50;99.80
7708;DHT22;3896;48.758;8.888;2022-07-09T07:33:24;15.50;99.90
7708;DHT22;3896;48.758;8.888;2022-07-09T07:35:50;15.70;99.40
7708;DHT22;3896;48.758;8.888;2022-07-09T07:38:16;15.80;98.20
7708;DHT22;3896;48.758;8.888;2022-07-09T07:40:41;15.90;97.20
7708;DHT22;3896;48.758;8.888;2022-07-09T07:43:09;16.00;96.10
7708;DHT22;3896;48.758;8.888;2022-07-09T07:45:36;16.20;95.00
7708;DHT22;3896;48.758;8.888;2022-07-09T07:48:01;16.30;94.60
7708;DHT22;3896;48.758;8.888;2022-07-09T07:50:27;16.50;94.20
7708;DHT22;3896;48.758;8.888;2022-07-09T07:52:52;16.60;93.10
7708;DHT22;3896;48.758;8.888;2022-07-09T07:55:18;16.80;92.00
7708;DHT22;3896;48.758;8.888;2022-07-09T07:57:44;16.90;90.80
7708;DHT22;3896;48.758;8.888;2022-07-09T08:00:10;17.10;89.60
7708;DHT22;3896;48.758;8.888;2022-07-09T08:02:35;17.30;88.10
7708;DHT22;3896;48.758;8.888;2022-07-09T08:05:01;17.40;85.40
7708;DHT22;3896;48.758;8.888;2022-07-09T08:07:27;17.60;83.80
7708;DHT22;3896;48.758;8.888;2022-07-09T08:09:53;17.70;83.70
7708;DHT22;3896;48.758;8.888;2022-07-09T08:12:18;17.90;82.90
7708;DHT22;3896;48.758;8.888;2022-07-09T08:14:44;18.10;83.50
7708;DHT22;3896;48.758;8.888;2022-07-09T08:17:10;18.30;83.80
7708;DHT22;3896;48.758;8.888;2022-07-09T08:19:36;18.40;84.10
7708;DHT22;3896;48.758;8.888;2022-07-09T08:22:02;18.60;83.30
7708;DHT22;3896;48.758;8.888;2022-07-09T08:24:27;18.80;82.60
7708;DHT22;3896;48.758;8.888;2022-07-09T08:26:53;18.90;82.20
7708;DHT22;3896;48.758;8.888;2022-07-09T08:29:19;19.10;81.10
7708;DHT22;3896;48.758;8.888;2022-07-09T08:31:44;19.20;81.90
7708;DHT22;3896;48.758;8.888;2022-07-09T08:34:10;19.30;81.50
7708;DHT22;3896;48.758;8.888;2022-07-09T08:36:36;19.50;79.80
7708;DHT22;3896;48.758;8.888;2022-07-09T08:39:02;19.70;78.80
7708;DHT22;3896;48.758;8.888;2022-07-09T08:41:28;19.90;77.30
7708;DHT22;3896;48.758;8.888;2022-07-09T08:43:53;20.00;76.90
7708;DHT22;3896;48.758;8.888;2022-07-09T08:46:20;20.20;76.20
7708;DHT22;3896;48.758;8.888;2022-07-09T08:48:46;20.30;76.20
7708;DHT22;3896;48.758;8.888;2022-07-09T08:51:12;20.50;74.60
7708;DHT22;3896;48.758;8.888;2022-07-09T08:53:42;20.70;74.20
7708;DHT22;3896;48.758;8.888;2022-07-09T08:56:09;20.90;74.10
7708;DHT22;3896;48.758;8.888;2022-07-09T08:58:35;21.10;72.50
7708;DHT22;3896;48.758;8.888;2022-07-09T09:01:01;21.30;71.00
7708;DHT22;3896;48.758;8.888;2022-07-09T09:03:27;21.50;69.80
7708;DHT22;3896;48.758;8.888;2022-07-09T09:06:06;21.60;69.30
7708;DHT22;3896;48.758;8.888;2022-07-09T09:08:41;21.80;68.20
7708;DHT22;3896;48.758;8.888;2022-07-09T09:11:25;21.90;65.70
7708;DHT22;3896;48.758;8.888;2022-07-09T09:13:52;22.10;64.90
7708;DHT22;3896;48.758;8.888;2022-07-09T09:16:19;22.40;64.10
7708;DHT22;3896;48.758;8.888;2022-07-09T09:18:48;22.50;63.10
7708;DHT22;3896;48.758;8.888;2022-07-09T09:21:16;22.70;62.30
7708;DHT22;3896;48.758;8.888;2022-07-09T09:23:50;22.90;62.10
7708;DHT22;3896;48.758;8.888;2022-07-09T09:26:18;23.00;61.40
7708;DHT22;3896;48.758;8.888;2022-07-09T09:29:00;23.20;60.90
7708;DHT22;3896;48.758;8.888;2022-07-09T09:31:31;23.40;60.70
7708;DHT22;3896;48.758;8.888;2022-07-09T09:39:17;23.90;58.30
7708;DHT22;3896;48.758;8.888;2022-07-09T09:41:48;24.10;58.20
7708;DHT22;3896;48.758;8.888;2022-07-09T09:44:19;24.30;56.20
7708;DHT22;3896;48.758;8.888;2022-07-09T09:46:46;24.40;55.50
7708;DHT22;3896;48.758;8.888;2022-07-09T09:49:14;24.60;54.60
7708;DHT22;3896;48.758;8.888;2022-07-09T09:54:20;24.90;53.20
7708;DHT22;3896;48.758;8.888;2022-07-09T09:56:47;25.10;53.20
7708;DHT22;3896;48.758;8.888;2022-07-09T09:59:13;25.20;52.70
7708;DHT22;3896;48.758;8.888;2022-07-09T10:01:40;25.40;52.40
7708;DHT22;3896;48.758;8.888;2022-07-09T10:04:06;25.60;51.90
7708;DHT22;3896;48.758;8.888;2022-07-09T10:06:33;25.70;52.70
7708;DHT22;3896;48.758;8.888;2022-07-09T10:09:01;25.90;51.30
7708;DHT22;3896;48.758;8.888;2022-07-09T10:11:47;26.00;50.30
7708;DHT22;3896;48.758;8.888;2022-07-09T10:16:51;26.30;52.00
7708;DHT22;3896;48.758;8.888;2022-07-09T10:19:28;26.40;51.70
7708;DHT22;3896;48.758;8.888;2022-07-09T10:21:55;26.50;50.80
7708;DHT22;3896;48.758;8.888;2022-07-09T10:24:26;26.50;50.40
7708;DHT22;3896;48.758;8.888;2022-07-09T10:26:52;26.60;49.80
7708;DHT22;3896;48.758;8.888;2022-07-09T10:29:28;26.60;49.80
7708;DHT22;3896;48.758;8.888;2022-07-09T10:31:57;26.70;50.00
7708;DHT22;3896;48.758;8.888;2022-07-09T10:34:50;26.80;50.50
7708;DHT22;3896;48.758;8.888;2022-07-09T10:37:17;26.80;49.90
7708;DHT22;3896;48.758;8.888;2022-07-09T10:39:55;26.90;49.20
7708;DHT22;3896;48.758;8.888;2022-07-09T10:42:22;27.00;48.70
7708;DHT22;3896;48.758;8.888;2022-07-09T10:44:49;27.20;49.50
7708;DHT22;3896;48.758;8.888;2022-07-09T10:47:19;27.30;49.10
7708;DHT22;3896;48.758;8.888;2022-07-09T10:49:45;27.40;49.40
7708;DHT22;3896;48.758;8.888;2022-07-09T10:52:10;27.50;49.00
7708;DHT22;3896;48.758;8.888;2022-07-09T10:54:46;27.70;48.10
7708;DHT22;3896;48.758;8.888;2022-07-09T10:57:13;27.80;47.90
7708;DHT22;3896;48.758;8.888;2022-07-09T10:59:38;28.00;46.80
7708;DHT22;3896;48.758;8.888;2022-07-09T11:02:04;28.20;46.10
7708;DHT22;3896;48.758;8.888;2022-07-09T11:04:31;28.30;45.70
7708;DHT22;3896;48.758;8.888;2022-07-09T11:06:58;28.40;45.50
7708;DHT22;3896;48.758;8.888;2022-07-09T11:09:27;28.40;45.30
7708;DHT22;3896;48.758;8.888;2022-07-09T11:11:56;28.30;44.70
7708;DHT22;3896;48.758;8.888;2022-07-09T11:14:22;28.40;43.90
7708;DHT22;3896;48.758;8.888;2022-07-09T11:16:55;28.30;44.20
7708;DHT22;3896;48.758;8.888;2022-07-09T11:19:21;28.30;44.80
7708;DHT22;3896;48.758;8.888;2022-07-09T11:21:47;28.30;44.70
7708;DHT22;3896;48.758;8.888;2022-07-09T11:24:16;28.30;45.20
7708;DHT22;3896;48.758;8.888;2022-07-09T11:26:41;28.40;44.90
7708;DHT22;3896;48.758;8.888;2022-07-09T11:29:08;28.40;44.70
7708;DHT22;3896;48.758;8.888;2022-07-09T11:31:35;28.40;45.10
7708;DHT22;3896;48.758;8.888;2022-07-09T11:34:00;28.40;45.20
7708;DHT22;3896;48.758;8.888;2022-07-09T11:36:38;28.40;44.90
7708;DHT22;3896;48.758;8.888;2022-07-09T11:39:03;28.40;44.50
7708;DHT22;3896;48.758;8.888;2022-07-09T11:41:40;28.40;45.50
7708;DHT22;3896;48.758;8.888;2022-07-09T11:44:05;28.40;46.60
7708;DHT22;3896;48.758;8.888;2022-07-09T11:46:31;28.40;46.10
7708;DHT22;3896;48.758;8.888;2022-07-09T11:48:56;28.40;46.00
7708;DHT22;3896;48.758;8.888;2022-07-09T11:51:32;28.50;45.10
7708;DHT22;3896;48.758;8.888;2022-07-09T11:53:59;28.50;45.50
7708;DHT22;3896;48.758;8.888;2022-07-09T11:56:25;28.50;45.30
7708;DHT22;3896;48.758;8.888;2022-07-09T11:58:51;28.50;45.40
7708;DHT22;3896;48.758;8.888;2022-07-09T12:01:17;28.60;45.40
7708;DHT22;3896;48.758;8.888;2022-07-09T12:03:51;28.60;45.30
7708;DHT22;3896;48.758;8.888;2022-07-09T12:06:17;28.60;44.30
7708;DHT22;3896;48.758;8.888;2022-07-09T12:08:42;28.60;43.90
7708;DHT22;3896;48.758;8.888;2022-07-09T12:11:08;28.70;44.40
7708;DHT22;3896;48.758;8.888;2022-07-09T12:13:34;28.80;43.80
7708;DHT22;3896;48.758;8.888;2022-07-09T12:15:59;28.90;44.00
7708;DHT22;3896;48.758;8.888;2022-07-09T12:18:25;29.00;44.80
7708;DHT22;3896;48.758;8.888;2022-07-09T12:20:51;29.20;44.90
7708;DHT22;3896;48.758;8.888;2022-07-09T12:23:16;29.30;43.60
7708;DHT22;3896;48.758;8.888;2022-07-09T12:25:42;29.60;42.90
7708;DHT22;3896;48.758;8.888;2022-07-09T12:28:08;29.80;42.10
7708;DHT22;3896;48.758;8.888;2022-07-09T12:30:34;30.00;41.10
7708;DHT22;3896;48.758;8.888;2022-07-09T12:32:59;30.30;42.00
7708;DHT22;3896;48.758;8.888;2022-07-09T12:35:26;30.30;41.10
7708;DHT22;3896;48.758;8.888;2022-07-09T12:37:52;30.50;41.20
7708;DHT22;3896;48.758;8.888;2022-07-09T12:40:18;30.50;41.00
7708;DHT22;3896;48.758;8.888;2022-07-09T12:42:44;30.60;41.30
7708;DHT22;3896;48.758;8.888;2022-07-09T12:45:10;31.00;39.20
7708;DHT22;3896;48.758;8.888;2022-07-09T12:47:35;31.00;39.30
7708;DHT22;3896;48.758;8.888;2022-07-09T12:50:01;31.00;40.20
7708;DHT22;3896;48.758;8.888;2022-07-09T12:52:32;31.00;40.50
7708;DHT22;3896;48.758;8.888;2022-07-09T12:54:59;31.00;39.20
7708;DHT22;3896;48.758;8.888;2022-07-09T12:57:26;31.10;39.80
7708;DHT22;3896;48.758;8.888;2022-07-09T12:59:52;31.20;39.50
7708;DHT22;3896;48.758;8.888;2022-07-09T13:02:17;31.30;40.00
7708;DHT22;3896;48.758;8.888;2022-07-09T13:04:45;31.40;39.00
7708;DHT22;3896;48.758;8.888;2022-07-09T13:07:10;31.50;39.10
7708;DHT22;3896;48.758;8.888;2022-07-09T13:09:36;31.50;39.60
7708;DHT22;3896;48.758;8.888;2022-07-09T13:12:04;31.60;38.80
7708;DHT22;3896;48.758;8.888;2022-07-09T13:14:29;31.70;38.80
7708;DHT22;3896;48.758;8.888;2022-07-09T13:16:55;31.70;38.40
7708;DHT22;3896;48.758;8.888;2022-07-09T13:19:21;31.70;38.30
7708;DHT22;3896;48.758;8.888;2022-07-09T13:21:46;31.60;38.80
7708;DHT22;3896;48.758;8.888;2022-07-09T13:24:12;31.50;37.90
7708;DHT22;3896;48.758;8.888;2022-07-09T13:26:38;31.50;37.60
7708;DHT22;3896;48.758;8.888;2022-07-09T13:29:04;31.40;37.70
7708;DHT22;3896;48.758;8.888;2022-07-09T13:31:29;31.40;37.80
7708;DHT22;3896;48.758;8.888;2022-07-09T13:33:58;31.20;37.70
7708;DHT22;3896;48.758;8.888;2022-07-09T13:36:24;31.20;38.10
7708;DHT22;3896;48.758;8.888;2022-07-09T13:38:49;31.10;38.20
7708;DHT22;3896;48.758;8.888;2022-07-09T13:41:15;31.00;38.80
7708;DHT22;3896;48.758;8.888;2022-07-09T13:43:42;31.00;39.30
7708;DHT22;3896;48.758;8.888;2022-07-09T13:46:08;31.00;39.20
7708;DHT22;3896;48.758;8.888;2022-07-09T13:48:33;31.10;39.40
7708;DHT22;3896;48.758;8.888;2022-07-09T13:50:59;31.20;39.50
7708;DHT22;3896;48.758;8.888;2022-07-09T13:53:25;31.30;39.30
7708;DHT22;3896;48.758;8.888;2022-07-09T13:55:54;31.30;39.40
7708;DHT22;3896;48.758;8.888;2022-07-09T13:58:19;31.40;39.20
7708;DHT22;3896;48.758;8.888;2022-07-09T14:00:45;31.40;39.20
7708;DHT22;3896;48.758;8.888;2022-07-09T14:03:10;31.40;39.50
7708;DHT22;3896;48.758;8.888;2022-07-09T14:05:36;31.50;40.10
7708;DHT22;3896;48.758;8.888;2022-07-09T14:08:03;31.50;39.80
7708;DHT22;3896;48.758;8.888;2022-07-09T14:10:29;31.70;39.30
7708;DHT22;3896;48.758;8.888;2022-07-09T14:12:55;31.70;38.70
7708;DHT22;3896;48.758;8.888;2022-07-09T14:15:21;31.80;38.30
7708;DHT22;3896;48.758;8.888;2022-07-09T14:17:48;31.80;38.50
7708;DHT22;3896;48.758;8.888;2022-07-09T14:20:13;31.80;38.20
7708;DHT22;3896;48.758;8.888;2022-07-09T14:22:39;31.70;37.70
7708;DHT22;3896;48.758;8.888;2022-07-09T14:25:05;31.70;38.60
7708;DHT22;3896;48.758;8.888;2022-07-09T14:27:31;31.70;39.00
7708;DHT22;3896;48.758;8.888;2022-07-09T14:29:56;31.80;38.90
7708;DHT22;3896;48.758;8.888;2022-07-09T14:32:22;31.90;39.50
7708;DHT22;3896;48.758;8.888;2022-07-09T14:34:47;32.00;39.20
7708;DHT22;3896;48.758;8.888;2022-07-09T14:37:13;32.20;38.60
7708;DHT22;3896;48.758;8.888;2022-07-09T14:39:38;32.30;38.70
7708;DHT22;3896;48.758;8.888;2022-07-09T14:42:04;32.50;38.20
7708;DHT22;3896;48.758;8.888;2022-07-09T14:44:29;32.60;37.30
7708;DHT22;3896;48.758;8.888;2022-07-09T14:46:56;32.60;37.00
7708;DHT22;3896;48.758;8.888;2022-07-09T14:49:27;32.80;36.70
7708;DHT22;3896;48.758;8.888;2022-07-09T14:51:54;32.80;36.60
7708;DHT22;3896;48.758;8.888;2022-07-09T14:54:20;33.00;36.20
7708;DHT22;3896;48.758;8.888;2022-07-09T14:56:45;33.00;36.30
7708;DHT22;3896;48.758;8.888;2022-07-09T14:59:12;33.10;36.20
7708;DHT22;3896;48.758;8.888;2022-07-09T15:01:44;33.20;36.70
7708;DHT22;3896;48.758;8.888;2022-07-09T15:04:10;33.20;36.60
7708;DHT22;3896;48.758;8.888;2022-07-09T15:06:36;33.30;36.40
7708;DHT22;3896;48.758;8.888;2022-07-09T15:09:01;33.30;36.30
7708;DHT22;3896;48.758;8.888;2022-07-09T15:11:27;33.20;36.80
7708;DHT22;3896;48.758;8.888;2022-07-09T15:13:52;33.20;36.10
7708;DHT22;3896;48.758;8.888;2022-07-09T15:16:18;33.20;36.00
7708;DHT22;3896;48.758;8.888;2022-07-09T15:18:43;33.10;36.30
7708;DHT22;3896;48.758;8.888;2022-07-09T15:21:09;33.10;36.40
7708;DHT22;3896;48.758;8.888;2022-07-09T15:23:36;33.10;36.40
7708;DHT22;3896;48.758;8.888;2022-07-09T15:26:02;33.10;36.20
7708;DHT22;3896;48.758;8.888;2022-07-09T15:28:27;33.20;36.60
7708;DHT22;3896;48.758;8.888;2022-07-09T15:30:53;33.10;36.20
7708;DHT22;3896;48.758;8.888;2022-07-09T15:33:18;33.00;36.00
7708;DHT22;3896;48.758;8.888;2022-07-09T15:35:44;33.00;36.40
7708;DHT22;3896;48.758;8.888;2022-07-09T15:38:10;32.90;36.30
7708;DHT22;3896;48.758;8.888;2022-07-09T15:40:38;32.80;36.90
7708;DHT22;3896;48.758;8.888;2022-07-09T15:43:04;32.70;37.40
7708;DHT22;3896;48.758;8.888;2022-07-09T15:45:32;32.60;37.30
7708;DHT22;3896;48.758;8.888;2022-07-09T15:47:58;32.60;37.20
7708;DHT22;3896;48.758;8.888;2022-07-09T15:50:23;32.40;37.20
7708;DHT22;3896;48.758;8.888;2022-07-09T15:52:49;32.40;37.60
7708;DHT22;3896;48.758;8.888;2022-07-09T15:55:15;32.30;37.80
7708;DHT22;3896;48.758;8.888;2022-07-09T15:57:41;32.20;38.40
7708;DHT22;3896;48.758;8.888;2022-07-09T16:00:09;32.10;38.30
7708;DHT22;3896;48.758;8.888;2022-07-09T16:02:35;32.10;38.30
7708;DHT22;3896;48.758;8.888;2022-07-09T16:05:03;32.00;38.20
7708;DHT22;3896;48.758;8.888;2022-07-09T16:07:28;32.00;37.90